createdAt,value
2023-03-05T00:00:35.446Z,6.34
2023-03-05T00:01:35.493Z,6.36
2023-03-05T00:02:35.503Z,6.34
2023-03-05T00:03:35.683Z,6.31
2023-03-05T00:04:35.540Z,6.31
2023-03-05T00:05:35.556Z,6.29
2023-03-05T00:06:35.581Z,6.31
2023-03-05T00:07:35.607Z,6.36
2023-03-05T00:08:35.626Z,6.24
2023-03-05T00:09:36.040Z,6.33
2023-03-05T00:10:35.696Z,6.36
2023-03-05T00:11:35.698Z,6.33
2023-03-05T00:12:35.718Z,6.21
2023-03-05T00:13:35.741Z,6.24
2023-03-05T00:14:35.763Z,6.29
2023-03-05T00:15:35.840Z,6.25
2023-03-05T00:16:35.815Z,6.26
2023-03-05T00:17:35.835Z,6.17
2023-03-05T00:18:35.858Z,6.28
2023-03-05T00:19:35.875Z,6.25
2023-03-05T00:20:35.904Z,6.20
2023-03-05T00:21:35.925Z,6.14
2023-03-05T00:22:35.958Z,6.17
2023-03-05T00:23:35.968Z,6.26
2023-03-05T00:24:35.994Z,6.18
2023-03-05T00:25:36.016Z,6.10
2023-03-05T00:26:36.063Z,6.10
2023-03-05T00:27:36.062Z,6.17
2023-03-05T00:28:36.086Z,6.15
2023-03-05T00:29:38.736Z,6.18
2023-03-05T00:30:36.132Z,6.20
2023-03-05T00:31:36.428Z,6.26
2023-03-05T00:32:36.329Z,6.18
2023-03-05T00:33:36.203Z,6.17
2023-03-05T00:34:36.252Z,6.20
2023-03-05T00:35:36.298Z,6.10
2023-03-05T00:36:36.279Z,6.15
2023-03-05T00:37:36.295Z,6.13
2023-03-05T00:38:36.318Z,6.10
2023-03-05T00:39:36.339Z,6.07
2023-03-05T00:40:36.406Z,6.00
2023-03-05T00:41:36.391Z,6.05
2023-03-05T00:42:36.435Z,6.06
2023-03-05T00:43:36.432Z,6.10
2023-03-05T00:44:36.459Z,6.07
2023-03-05T00:45:36.481Z,6.03
2023-03-05T00:46:36.582Z,6.03
2023-03-05T00:47:36.591Z,6.13
2023-03-05T00:48:36.555Z,6.09
2023-03-05T00:49:36.574Z,6.03
2023-03-05T00:50:36.595Z,6.00
2023-03-05T00:51:36.619Z,5.98
2023-03-05T00:52:36.644Z,6.00
2023-03-05T00:53:36.664Z,6.00
2023-03-05T00:54:36.694Z,6.05
2023-03-05T00:55:36.710Z,6.00
2023-03-05T00:56:36.741Z,5.99
2023-03-05T00:57:36.756Z,5.99
2023-03-05T00:58:36.804Z,6.00
2023-03-05T00:59:36.809Z,6.00
2023-03-05T01:00:36.825Z,6.03
2023-03-05T01:01:36.944Z,6.00
2023-03-05T01:02:36.873Z,6.07
2023-03-05T01:03:36.908Z,6.03
2023-03-05T01:04:37.061Z,6.07
2023-03-05T01:05:37.026Z,6.05
2023-03-05T01:06:36.954Z,6.03
2023-03-05T01:07:36.975Z,6.05
2023-03-05T01:08:37.007Z,6.03
2023-03-05T01:09:37.024Z,6.03
2023-03-05T01:10:37.045Z,6.02
2023-03-05T01:11:37.067Z,6.05
2023-03-05T01:12:37.087Z,6.03
2023-03-05T01:13:37.110Z,5.92
2023-03-05T01:14:37.160Z,5.96
2023-03-05T01:15:37.155Z,6.00
2023-03-05T01:16:37.178Z,5.95
2023-03-05T01:17:37.197Z,5.89
2023-03-05T01:18:37.239Z,5.99
2023-03-05T01:19:37.246Z,5.98
2023-03-05T01:20:37.270Z,5.91
2023-03-05T01:21:37.288Z,5.95
2023-03-05T01:22:37.314Z,5.92
2023-03-05T01:23:37.398Z,5.92
2023-03-05T01:24:37.359Z,5.85
2023-03-05T01:25:37.482Z,5.88
2023-03-05T01:26:37.405Z,5.89
2023-03-05T01:27:37.424Z,5.82
2023-03-05T01:28:37.455Z,5.87
2023-03-05T01:29:37.472Z,5.78
2023-03-05T01:30:37.536Z,5.80
2023-03-05T01:31:37.597Z,5.78
2023-03-05T01:32:37.592Z,5.80
2023-03-05T01:33:37.592Z,5.82
2023-03-05T01:34:37.594Z,5.84
2023-03-05T01:35:37.628Z,5.82
2023-03-05T01:36:37.643Z,5.80
2023-03-05T01:37:37.660Z,5.85
2023-03-05T01:38:37.681Z,5.77
2023-03-05T01:39:37.707Z,5.78
2023-03-05T01:40:37.730Z,5.84
2023-03-05T01:41:37.751Z,5.78
2023-03-05T01:42:37.775Z,5.85
2023-03-05T01:43:37.810Z,5.78
2023-03-05T01:44:37.822Z,5.81
2023-03-05T01:45:37.892Z,5.72
2023-03-05T01:46:37.890Z,5.73
2023-03-05T01:47:37.897Z,5.69
2023-03-05T01:48:37.916Z,5.73
2023-03-05T01:49:37.943Z,5.77
2023-03-05T01:50:37.965Z,5.67
2023-03-05T01:51:37.997Z,5.72
2023-03-05T01:52:38.012Z,5.72
2023-03-05T01:53:38.030Z,5.70
2023-03-05T01:54:38.055Z,5.80
2023-03-05T01:55:38.075Z,5.70
2023-03-05T01:56:38.102Z,5.75
2023-03-05T01:57:38.134Z,5.70
2023-03-05T01:58:38.157Z,5.67
2023-03-05T01:59:38.168Z,5.69
2023-03-05T02:00:38.193Z,5.70
2023-03-05T02:01:38.212Z,5.72
2023-03-05T02:02:38.337Z,5.73
2023-03-05T02:03:38.381Z,5.80
2023-03-05T02:04:38.383Z,5.59
2023-03-05T02:05:38.305Z,5.62
2023-03-05T02:06:38.334Z,5.69
2023-03-05T02:07:38.350Z,5.72
2023-03-05T02:08:38.375Z,5.70
2023-03-05T02:09:38.397Z,5.62
2023-03-05T02:10:38.427Z,5.67
2023-03-05T02:11:38.446Z,5.64
2023-03-05T02:12:38.473Z,5.77
2023-03-05T02:13:38.492Z,5.70
2023-03-05T02:14:38.521Z,5.60
2023-03-05T02:15:38.554Z,5.73
2023-03-05T02:16:38.656Z,5.73
2023-03-05T02:17:38.586Z,5.72
2023-03-05T02:18:38.634Z,5.72
2023-03-05T02:19:38.636Z,5.70
2023-03-05T02:20:38.658Z,5.70
2023-03-05T02:21:38.684Z,5.59
2023-03-05T02:22:38.704Z,5.62
2023-03-05T02:23:38.735Z,5.77
2023-03-05T02:24:38.761Z,5.60
2023-03-05T02:25:38.772Z,5.64
2023-03-05T02:26:38.797Z,5.57
2023-03-05T02:27:38.817Z,5.57
2023-03-05T02:28:38.841Z,5.63
2023-03-05T02:29:38.879Z,5.59
2023-03-05T02:30:38.903Z,5.63
2023-03-05T02:31:39.021Z,5.62
2023-03-05T02:32:39.008Z,5.62
2023-03-05T02:33:38.957Z,5.59
2023-03-05T02:34:39.009Z,5.62
2023-03-05T02:35:39.021Z,5.66
2023-03-05T02:36:39.029Z,5.69
2023-03-05T02:37:39.052Z,5.63
2023-03-05T02:38:39.078Z,5.66
2023-03-05T02:39:39.094Z,5.63
2023-03-05T02:40:39.119Z,5.60
2023-03-05T02:41:39.150Z,5.64
2023-03-05T02:42:39.167Z,5.69
2023-03-05T02:43:39.191Z,5.62
2023-03-05T02:44:39.239Z,5.60
2023-03-05T02:45:39.311Z,5.64
2023-03-05T02:46:39.260Z,5.64
2023-03-05T02:47:39.281Z,5.59
2023-03-05T02:48:39.307Z,5.64
2023-03-05T02:49:39.326Z,5.55
2023-03-05T02:50:39.370Z,5.54
2023-03-05T02:51:39.373Z,5.54
2023-03-05T02:52:39.469Z,5.52
2023-03-05T02:53:39.416Z,5.60
2023-03-05T02:54:39.446Z,5.59
2023-03-05T02:55:39.464Z,5.57
2023-03-05T02:56:39.511Z,5.60
2023-03-05T02:57:39.524Z,5.54
2023-03-05T02:58:39.567Z,5.59
2023-03-05T02:59:39.683Z,5.59
2023-03-05T03:00:39.585Z,5.57
2023-03-05T03:01:39.662Z,5.57
2023-03-05T03:02:39.631Z,5.57
2023-03-05T03:03:39.649Z,5.62
2023-03-05T03:04:39.714Z,5.59
2023-03-05T03:05:39.698Z,5.57
2023-03-05T03:06:39.782Z,5.57
2023-03-05T03:07:39.755Z,5.55
2023-03-05T03:08:39.775Z,5.57
2023-03-05T03:09:39.789Z,5.52
2023-03-05T03:10:39.813Z,5.54
2023-03-05T03:11:39.836Z,5.52
2023-03-05T03:12:39.860Z,5.54
2023-03-05T03:13:39.898Z,5.54
2023-03-05T03:14:39.913Z,5.55
2023-03-05T03:15:39.929Z,5.59
2023-03-05T03:16:40.005Z,5.63
2023-03-05T03:17:39.970Z,5.59
2023-03-05T03:18:40.005Z,5.59
2023-03-05T03:19:40.041Z,5.62
2023-03-05T03:20:40.055Z,5.54
2023-03-05T03:21:40.068Z,5.48
2023-03-05T03:22:40.124Z,5.59
2023-03-05T03:23:40.116Z,5.55
2023-03-05T03:24:40.145Z,5.55
2023-03-05T03:25:40.182Z,5.59
2023-03-05T03:26:40.188Z,5.52
2023-03-05T03:27:40.212Z,5.52
2023-03-05T03:28:40.232Z,5.55
2023-03-05T03:29:40.258Z,5.55
2023-03-05T03:30:40.309Z,5.49
2023-03-05T03:31:40.312Z,5.55
2023-03-05T03:32:40.326Z,5.48
2023-03-05T03:33:40.352Z,5.45
2023-03-05T03:34:40.371Z,5.52
2023-03-05T03:35:40.409Z,5.60
2023-03-05T03:36:40.420Z,5.52
2023-03-05T03:37:40.441Z,5.46
2023-03-05T03:38:40.500Z,5.48
2023-03-05T03:39:40.488Z,5.45
2023-03-05T03:40:40.516Z,5.45
2023-03-05T03:41:40.539Z,5.46
2023-03-05T03:42:40.564Z,5.48
2023-03-05T03:43:40.586Z,5.46
2023-03-05T03:44:40.636Z,5.49
2023-03-05T03:45:40.630Z,5.48
2023-03-05T03:46:40.660Z,5.49
2023-03-05T03:47:40.676Z,5.49
2023-03-05T03:48:40.698Z,5.54
2023-03-05T03:49:40.725Z,5.51
2023-03-05T03:50:40.744Z,5.49
2023-03-05T03:51:40.768Z,5.55
2023-03-05T03:52:40.789Z,5.55
2023-03-05T03:53:40.816Z,5.48
2023-03-05T03:54:40.861Z,5.48
2023-03-05T03:55:40.861Z,5.46
2023-03-05T03:56:40.889Z,5.51
2023-03-05T03:57:40.915Z,5.46
2023-03-05T03:58:40.928Z,5.45
2023-03-05T03:59:40.955Z,5.57
2023-03-05T04:00:40.974Z,5.49
2023-03-05T04:01:41.005Z,5.49
2023-03-05T04:02:41.117Z,5.42
2023-03-05T04:03:41.060Z,5.42
2023-03-05T04:04:41.182Z,5.44
2023-03-05T04:05:41.106Z,5.42
2023-03-05T04:06:41.120Z,5.46
2023-03-05T04:07:41.137Z,5.44
2023-03-05T04:08:41.164Z,5.39
2023-03-05T04:09:41.184Z,5.49
2023-03-05T04:10:41.240Z,5.46
2023-03-05T04:11:41.240Z,5.48
2023-03-05T04:12:41.260Z,5.46
2023-03-05T04:13:41.289Z,5.41
2023-03-05T04:14:41.298Z,5.44
2023-03-05T04:15:41.340Z,5.45
2023-03-05T04:16:41.347Z,5.36
2023-03-05T04:17:41.370Z,5.37
2023-03-05T04:18:41.387Z,5.33
2023-03-05T04:19:41.416Z,5.39
2023-03-05T04:20:41.434Z,5.44
2023-03-05T04:21:41.477Z,5.42
2023-03-05T04:22:41.483Z,5.39
2023-03-05T04:23:41.518Z,5.37
2023-03-05T04:24:41.526Z,5.37
2023-03-05T04:25:41.551Z,5.48
2023-03-05T04:26:41.603Z,5.42
2023-03-05T04:27:41.597Z,5.48
2023-03-05T04:28:41.617Z,5.41
2023-03-05T04:29:41.645Z,5.34
2023-03-05T04:30:41.664Z,5.44
2023-03-05T04:31:41.691Z,5.44
2023-03-05T04:32:41.713Z,5.41
2023-03-05T04:33:41.731Z,5.45
2023-03-05T04:34:41.754Z,5.42
2023-03-05T04:35:41.827Z,5.41
2023-03-05T04:36:41.795Z,5.42
2023-03-05T04:37:41.828Z,5.37
2023-03-05T04:38:41.845Z,5.44
2023-03-05T04:39:41.869Z,5.41
2023-03-05T04:40:41.897Z,5.37
2023-03-05T04:41:41.916Z,5.39
2023-03-05T04:42:41.955Z,5.41
2023-03-05T04:43:41.962Z,5.37
2023-03-05T04:44:41.981Z,5.36
2023-03-05T04:45:42.004Z,5.37
2023-03-05T04:46:42.070Z,5.37
2023-03-05T04:47:42.091Z,5.37
2023-03-05T04:48:42.075Z,5.39
2023-03-05T04:49:42.099Z,5.36
2023-03-05T04:50:42.119Z,5.39
2023-03-05T04:51:42.143Z,5.42
2023-03-05T04:52:42.163Z,5.42
2023-03-05T04:53:42.194Z,5.36
2023-03-05T04:54:42.209Z,5.42
2023-03-05T04:55:42.233Z,5.37
2023-03-05T04:56:42.272Z,5.39
2023-03-05T04:57:42.278Z,5.30
2023-03-05T04:58:42.320Z,5.36
2023-03-05T04:59:42.334Z,5.31
2023-03-05T05:00:42.345Z,5.33
2023-03-05T05:01:42.416Z,5.30
2023-03-05T05:02:42.485Z,5.31
2023-03-05T05:03:42.416Z,5.30
2023-03-05T05:04:42.436Z,5.30
2023-03-05T05:05:42.466Z,5.27
2023-03-05T05:06:42.489Z,5.27
2023-03-05T05:07:42.508Z,5.28
2023-03-05T05:08:42.529Z,5.24
2023-03-05T05:09:42.557Z,5.24
2023-03-05T05:10:42.587Z,5.27
2023-03-05T05:11:42.599Z,5.28
2023-03-05T05:12:42.623Z,5.31
2023-03-05T05:13:42.652Z,5.23
2023-03-05T05:14:42.685Z,5.24
2023-03-05T05:15:42.692Z,5.23
2023-03-05T05:16:42.712Z,5.21
2023-03-05T05:17:42.737Z,5.16
2023-03-05T05:18:42.763Z,5.24
2023-03-05T05:19:42.923Z,5.20
2023-03-05T05:20:42.814Z,5.23
2023-03-05T05:21:42.829Z,5.27
2023-03-05T05:22:42.853Z,5.28
2023-03-05T05:23:42.885Z,5.24
2023-03-05T05:24:42.898Z,5.24
2023-03-05T05:25:42.920Z,5.18
2023-03-05T05:26:42.942Z,5.27
2023-03-05T05:27:42.967Z,5.26
2023-03-05T05:28:42.998Z,5.24
2023-03-05T05:29:43.013Z,5.18
2023-03-05T05:30:43.052Z,5.16
2023-03-05T05:31:43.106Z,5.21
2023-03-05T05:32:43.163Z,5.15
2023-03-05T05:33:43.104Z,5.09
2023-03-05T05:34:43.124Z,5.08
2023-03-05T05:35:43.189Z,5.08
2023-03-05T05:36:43.171Z,5.13
2023-03-05T05:37:43.195Z,5.16
2023-03-05T05:38:43.219Z,5.15
2023-03-05T05:39:43.243Z,5.09
2023-03-05T05:40:43.272Z,5.06
2023-03-05T05:41:43.291Z,5.12
2023-03-05T05:42:43.312Z,5.03
2023-03-05T05:43:43.333Z,5.10
2023-03-05T05:44:43.357Z,5.10
2023-03-05T05:45:43.549Z,5.10
2023-03-05T05:46:43.509Z,5.12
2023-03-05T05:47:43.428Z,5.13
2023-03-05T05:48:43.453Z,5.08
2023-03-05T05:49:43.472Z,5.06
2023-03-05T05:50:43.497Z,5.10
2023-03-05T05:51:43.522Z,5.09
2023-03-05T05:52:43.542Z,5.08
2023-03-05T05:53:43.572Z,4.98
2023-03-05T05:54:43.602Z,5.00
2023-03-05T05:55:43.611Z,5.10
2023-03-05T05:56:43.637Z,5.08
2023-03-05T05:57:43.657Z,5.05
2023-03-05T05:58:43.677Z,5.03
2023-03-05T05:59:43.713Z,5.03
2023-03-05T06:00:43.722Z,5.09
2023-03-05T06:01:43.825Z,5.12
2023-03-05T06:02:43.844Z,5.13
2023-03-05T06:03:43.798Z,5.10
2023-03-05T06:04:43.813Z,5.10
2023-03-05T06:05:43.837Z,5.09
2023-03-05T06:06:43.862Z,5.10
2023-03-05T06:07:43.921Z,5.12
2023-03-05T06:08:43.907Z,5.10
2023-03-05T06:09:43.929Z,5.12
2023-03-05T06:10:43.950Z,5.06
2023-03-05T06:11:43.979Z,5.09
2023-03-05T06:12:43.998Z,4.97
2023-03-05T06:13:44.022Z,5.12
2023-03-05T06:14:44.045Z,5.05
2023-03-05T06:15:44.068Z,5.05
2023-03-05T06:16:44.130Z,5.03
2023-03-05T06:17:44.127Z,5.02
2023-03-05T06:18:44.155Z,5.15
2023-03-05T06:19:44.157Z,5.09
2023-03-05T06:20:44.178Z,5.13
2023-03-05T06:21:44.210Z,5.10
2023-03-05T06:22:44.226Z,5.12
2023-03-05T06:23:44.247Z,5.16
2023-03-05T06:24:44.270Z,5.13
2023-03-05T06:25:44.300Z,5.16
2023-03-05T06:26:44.315Z,5.13
2023-03-05T06:27:44.349Z,5.15
2023-03-05T06:28:44.368Z,5.15
2023-03-05T06:29:44.399Z,5.06
2023-03-05T06:30:44.429Z,5.08
2023-03-05T06:31:44.435Z,5.13
2023-03-05T06:32:44.469Z,5.09
2023-03-05T06:33:44.481Z,5.12
2023-03-05T06:34:44.566Z,5.10
2023-03-05T06:35:44.580Z,5.20
2023-03-05T06:36:44.567Z,5.21
2023-03-05T06:37:44.572Z,5.20
2023-03-05T06:38:44.621Z,5.16
2023-03-05T06:39:44.617Z,5.20
2023-03-05T06:40:44.649Z,5.21
2023-03-05T06:41:44.662Z,5.21
2023-03-05T06:42:44.685Z,5.13
2023-03-05T06:43:44.716Z,5.13
2023-03-05T06:44:47.066Z,5.21
2023-03-05T06:45:44.831Z,5.31
2023-03-05T06:46:44.778Z,5.24
2023-03-05T06:47:44.800Z,5.28
2023-03-05T06:48:44.834Z,5.23
2023-03-05T06:49:44.853Z,5.31
2023-03-05T06:50:44.886Z,5.28
2023-03-05T06:51:44.898Z,5.28
2023-03-05T06:52:44.917Z,5.33
2023-03-05T06:53:44.950Z,5.34
2023-03-05T06:54:44.959Z,5.41
2023-03-05T06:55:44.985Z,5.44
2023-03-05T06:56:45.018Z,5.39
2023-03-05T06:57:45.053Z,5.39
2023-03-05T06:58:45.059Z,5.36
2023-03-05T06:59:45.078Z,5.37
2023-03-05T07:00:45.104Z,5.46
2023-03-05T07:01:45.122Z,5.45
2023-03-05T07:02:45.181Z,5.41
2023-03-05T07:03:45.188Z,5.44
2023-03-05T07:04:45.192Z,5.54
2023-03-05T07:05:45.224Z,5.46
2023-03-05T07:06:45.258Z,5.51
2023-03-05T07:07:45.263Z,5.54
2023-03-05T07:08:45.284Z,5.51
2023-03-05T07:09:45.308Z,5.48
2023-03-05T07:10:45.337Z,5.57
2023-03-05T07:11:45.359Z,5.54
2023-03-05T07:12:45.376Z,5.54
2023-03-05T07:13:45.401Z,5.51
2023-03-05T07:14:45.423Z,5.54
2023-03-05T07:15:45.476Z,5.62
2023-03-05T07:16:45.473Z,5.64
2023-03-05T07:17:45.494Z,5.63
2023-03-05T07:18:45.515Z,5.63
2023-03-05T07:19:45.552Z,5.64
2023-03-05T07:20:45.569Z,5.67
2023-03-05T07:21:45.591Z,5.78
2023-03-05T07:22:45.638Z,5.69
2023-03-05T07:23:45.674Z,5.77
2023-03-05T07:24:45.657Z,5.81
2023-03-05T07:25:45.682Z,5.88
2023-03-05T07:26:47.435Z,5.89
2023-03-05T07:27:45.729Z,5.92
2023-03-05T07:28:45.751Z,6.00
2023-03-05T07:29:45.774Z,6.00
2023-03-05T07:30:45.978Z,6.00
2023-03-05T07:31:45.820Z,6.02
2023-03-05T07:32:45.843Z,6.00
2023-03-05T07:33:45.872Z,6.05
2023-03-05T07:34:45.890Z,6.07
2023-03-05T07:35:45.924Z,6.07
2023-03-05T07:36:45.935Z,5.99
2023-03-05T07:37:45.972Z,6.03
2023-03-05T07:38:46.005Z,6.07
2023-03-05T07:39:47.281Z,6.14
2023-03-05T07:40:46.032Z,6.10
2023-03-05T07:41:46.058Z,6.14
2023-03-05T07:42:46.080Z,6.15
2023-03-05T07:43:46.119Z,6.24
2023-03-05T07:44:46.127Z,6.25
2023-03-05T07:45:46.259Z,6.21
2023-03-05T07:46:46.178Z,6.29
2023-03-05T07:47:46.195Z,6.26
2023-03-05T07:48:46.223Z,6.21
2023-03-05T07:49:46.247Z,6.13
2023-03-05T07:50:46.273Z,6.15
2023-03-05T07:51:31.690Z,6.18
2023-03-05T07:52:31.715Z,6.28
2023-03-05T07:53:31.739Z,6.29
2023-03-05T07:54:31.786Z,6.31
2023-03-05T07:55:31.784Z,6.34
2023-03-05T07:56:32.031Z,6.28
2023-03-05T07:57:31.866Z,6.29
2023-03-05T07:58:31.873Z,6.21
2023-03-05T07:59:31.879Z,6.31
2023-03-05T08:00:31.907Z,6.15
2023-03-05T08:01:31.928Z,6.28
2023-03-05T08:02:32.050Z,6.31
2023-03-05T08:03:31.974Z,6.29
2023-03-05T08:04:32.102Z,6.33
2023-03-05T08:05:32.022Z,6.36
2023-03-05T08:06:32.047Z,6.26
2023-03-05T08:07:32.072Z,6.34
2023-03-05T08:08:32.097Z,6.28
2023-03-05T08:09:32.121Z,6.34
2023-03-05T08:10:32.162Z,6.37
2023-03-05T08:11:32.169Z,6.29
2023-03-05T08:12:32.194Z,6.36
2023-03-05T08:13:32.216Z,6.36
2023-03-05T08:14:32.243Z,6.37
2023-03-05T08:15:32.265Z,6.40
2023-03-05T08:16:32.285Z,6.40
2023-03-05T08:17:32.312Z,6.39
2023-03-05T08:18:32.335Z,6.39
2023-03-05T08:19:32.374Z,6.39
2023-03-05T08:20:32.382Z,6.40
2023-03-05T08:21:32.405Z,6.29
2023-03-05T08:22:32.428Z,6.29
2023-03-05T08:23:32.453Z,6.25
2023-03-05T08:24:32.476Z,6.33
2023-03-05T08:25:32.506Z,6.26
2023-03-05T08:26:32.542Z,6.25
2023-03-05T08:27:32.546Z,6.21
2023-03-05T08:28:34.405Z,6.24
2023-03-05T08:29:32.594Z,6.21
2023-03-05T08:30:32.622Z,6.26
2023-03-05T08:31:32.694Z,6.31
2023-03-05T08:32:32.689Z,6.34
2023-03-05T08:33:35.229Z,6.28
2023-03-05T08:34:32.719Z,6.36
2023-03-05T08:35:32.821Z,6.34
2023-03-05T08:36:32.768Z,6.36
2023-03-05T08:37:32.781Z,6.40
2023-03-05T08:38:32.812Z,6.36
2023-03-05T08:39:32.831Z,6.31
2023-03-05T08:40:32.865Z,6.33
2023-03-05T08:41:32.875Z,6.21
2023-03-05T08:42:32.924Z,6.25
2023-03-05T08:43:32.924Z,6.21
2023-03-05T08:44:32.949Z,6.28
2023-03-05T08:45:32.971Z,6.21
2023-03-05T08:46:33.034Z,6.25
2023-03-05T08:47:33.018Z,6.33
2023-03-05T08:48:33.045Z,6.33
2023-03-05T08:49:33.069Z,6.34
2023-03-05T08:50:33.104Z,6.33
2023-03-05T08:51:33.115Z,6.31
2023-03-05T08:52:33.144Z,6.33
2023-03-05T08:53:33.160Z,6.39
2023-03-05T08:54:33.187Z,6.46
2023-03-05T08:55:33.219Z,6.51
2023-03-05T08:56:33.234Z,6.60
2023-03-05T08:57:33.259Z,6.58
2023-03-05T08:58:33.299Z,6.68
2023-03-05T08:59:33.303Z,6.72
2023-03-05T09:00:33.333Z,6.76
2023-03-05T09:01:33.394Z,6.58
2023-03-05T09:02:33.392Z,6.70
2023-03-05T09:03:33.500Z,6.73
2023-03-05T09:04:33.426Z,6.75
2023-03-05T09:05:33.448Z,6.70
2023-03-05T09:06:33.474Z,6.70
2023-03-05T09:07:33.498Z,6.86
2023-03-05T09:08:33.519Z,6.83
2023-03-05T09:09:33.543Z,6.83
2023-03-05T09:10:33.569Z,6.83
2023-03-05T09:11:33.590Z,6.85
2023-03-05T09:12:33.617Z,6.95
2023-03-05T09:13:33.667Z,6.94
2023-03-05T09:14:33.685Z,6.97
2023-03-05T09:15:33.684Z,6.90
2023-03-05T09:16:33.814Z,6.91
2023-03-05T09:17:33.734Z,6.88
2023-03-05T09:18:33.760Z,6.72
2023-03-05T09:19:33.785Z,6.86
2023-03-05T09:20:33.810Z,6.80
2023-03-05T09:21:33.828Z,6.72
2023-03-05T09:22:33.852Z,6.70
2023-03-05T09:23:33.879Z,6.83
2023-03-05T09:24:33.900Z,6.83
2023-03-05T09:25:33.926Z,6.88
2023-03-05T09:26:33.947Z,6.88
2023-03-05T09:27:33.972Z,6.85
2023-03-05T09:28:33.998Z,6.76
2023-03-05T09:29:34.018Z,6.83
2023-03-05T09:30:34.068Z,6.94
2023-03-05T09:31:34.094Z,6.90
2023-03-05T09:32:34.183Z,6.94
2023-03-05T09:33:34.122Z,6.94
2023-03-05T09:34:34.142Z,6.94
2023-03-05T09:35:34.201Z,6.94
2023-03-05T09:36:34.192Z,6.95
2023-03-05T09:37:34.245Z,6.95
2023-03-05T09:38:34.247Z,7.04
2023-03-05T09:39:34.259Z,6.94
2023-03-05T09:40:34.291Z,7.11
2023-03-05T09:41:34.317Z,7.00
2023-03-05T09:42:34.337Z,7.04
2023-03-05T09:43:34.407Z,7.08
2023-03-05T09:44:34.410Z,7.18
2023-03-05T09:45:34.442Z,7.26
2023-03-05T09:46:34.452Z,7.26
2023-03-05T09:47:34.453Z,7.31
2023-03-05T09:48:34.477Z,7.36
2023-03-05T09:49:34.511Z,7.47
2023-03-05T09:50:34.533Z,7.30
2023-03-05T09:51:34.550Z,7.45
2023-03-05T09:52:34.581Z,7.48
2023-03-05T09:53:34.605Z,7.51
2023-03-05T09:54:34.625Z,7.59
2023-03-05T09:55:34.647Z,7.64
2023-03-05T09:56:34.694Z,7.64
2023-03-05T09:57:34.696Z,7.61
2023-03-05T09:58:34.739Z,7.55
2023-03-05T09:59:34.746Z,7.55
2023-03-05T10:00:34.786Z,7.56
2023-03-05T10:01:34.799Z,7.61
2023-03-05T10:02:34.843Z,7.64
2023-03-05T10:03:35.121Z,7.55
2023-03-05T10:04:34.876Z,7.59
2023-03-05T10:05:34.893Z,7.51
2023-03-05T10:06:34.927Z,7.51
2023-03-05T10:07:34.947Z,7.64
2023-03-05T10:08:34.995Z,7.63
2023-03-05T10:09:36.896Z,7.74
2023-03-05T10:10:35.053Z,7.68
2023-03-05T10:11:35.057Z,7.68
2023-03-05T10:12:35.070Z,7.67
2023-03-05T10:13:35.094Z,7.59
2023-03-05T10:14:35.120Z,7.47
2023-03-05T10:15:35.142Z,7.47
2023-03-05T10:16:35.218Z,7.41
2023-03-05T10:17:35.191Z,7.31
2023-03-05T10:18:35.243Z,7.27
2023-03-05T10:19:35.241Z,7.22
2023-03-05T10:20:35.268Z,7.11
2023-03-05T10:21:35.289Z,7.11
2023-03-05T10:22:35.315Z,6.94
2023-03-05T10:23:35.343Z,7.03
2023-03-05T10:24:35.365Z,6.97
2023-03-05T10:25:35.403Z,7.00
2023-03-05T10:26:35.415Z,6.93
2023-03-05T10:27:35.431Z,6.97
2023-03-05T10:28:35.461Z,6.86
2023-03-05T10:29:35.484Z,6.85
2023-03-05T10:30:35.507Z,6.73
2023-03-05T10:31:35.579Z,6.51
2023-03-05T10:32:35.607Z,6.34
2023-03-05T10:33:35.580Z,6.28
2023-03-05T10:34:35.637Z,6.18
2023-03-05T10:35:35.663Z,6.21
2023-03-05T10:36:35.652Z,6.07
2023-03-05T10:37:35.675Z,6.07
2023-03-05T10:38:35.700Z,6.06
2023-03-05T10:39:35.722Z,6.13
2023-03-05T10:40:35.752Z,6.09
2023-03-05T10:41:35.788Z,6.18
2023-03-05T10:42:35.797Z,6.25
2023-03-05T10:43:35.817Z,6.20
2023-03-05T10:44:35.843Z,6.28
2023-03-05T10:45:35.929Z,6.26
2023-03-05T10:46:35.896Z,6.28
2023-03-05T10:47:35.912Z,6.29
2023-03-05T10:48:35.949Z,6.33
2023-03-05T10:49:35.958Z,6.39
2023-03-05T10:50:36.002Z,6.55
2023-03-05T10:51:36.009Z,6.58
2023-03-05T10:52:36.032Z,6.55
2023-03-05T10:53:36.051Z,6.55
2023-03-05T10:54:36.094Z,6.52
2023-03-05T10:55:36.103Z,6.51
2023-03-05T10:56:36.126Z,6.60
2023-03-05T10:57:36.146Z,6.54
2023-03-05T10:58:36.183Z,6.46
2023-03-05T10:59:36.194Z,6.47
2023-03-05T11:00:36.219Z,6.43
2023-03-05T11:01:36.277Z,6.44
2023-03-05T11:02:36.302Z,6.43
2023-03-05T11:03:36.288Z,6.28
2023-03-05T11:04:36.321Z,6.21
2023-03-05T11:05:36.333Z,6.24
2023-03-05T11:06:36.417Z,6.09
2023-03-05T11:07:36.382Z,6.24
2023-03-05T11:08:36.423Z,6.26
2023-03-05T11:09:36.431Z,6.21
2023-03-05T11:10:36.462Z,6.24
2023-03-05T11:11:36.474Z,6.17
2023-03-05T11:12:36.500Z,6.26
2023-03-05T11:13:36.527Z,6.29
2023-03-05T11:14:36.547Z,6.40
2023-03-05T11:15:36.609Z,6.47
2023-03-05T11:16:36.594Z,6.47
2023-03-05T11:17:36.614Z,6.54
2023-03-05T11:18:36.640Z,6.49
2023-03-05T11:19:36.666Z,6.55
2023-03-05T11:20:36.687Z,6.54
2023-03-05T11:21:36.713Z,6.52
2023-03-05T11:22:36.753Z,6.55
2023-03-05T11:23:36.755Z,6.54
2023-03-05T11:24:36.785Z,6.58
2023-03-05T11:25:36.808Z,6.51
2023-03-05T11:26:36.832Z,6.46
2023-03-05T11:27:36.851Z,6.52
2023-03-05T11:28:36.891Z,6.65
2023-03-05T11:29:36.899Z,6.57
2023-03-05T11:30:37.020Z,6.57
2023-03-05T11:31:36.946Z,6.58
2023-03-05T11:32:36.985Z,6.58
2023-03-05T11:33:37.006Z,6.61
2023-03-05T11:34:37.016Z,6.60
2023-03-05T11:35:37.102Z,6.64
2023-03-05T11:36:37.074Z,6.64
2023-03-05T11:37:37.090Z,6.54
2023-03-05T11:38:37.134Z,6.60
2023-03-05T11:39:37.137Z,6.72
2023-03-05T11:40:37.166Z,6.73
2023-03-05T11:41:37.184Z,6.85
2023-03-05T11:42:37.209Z,6.73
2023-03-05T11:43:37.230Z,6.83
2023-03-05T11:44:37.291Z,6.72
2023-03-05T11:45:37.287Z,6.73
2023-03-05T11:46:37.359Z,6.83
2023-03-05T11:47:37.331Z,6.91
2023-03-05T11:48:37.378Z,6.95
2023-03-05T11:49:37.373Z,6.94
2023-03-05T11:50:37.401Z,7.04
2023-03-05T11:51:37.429Z,7.15
2023-03-05T11:52:37.449Z,7.21
2023-03-05T11:53:37.475Z,7.22
2023-03-05T11:54:37.550Z,7.30
2023-03-05T11:55:37.551Z,7.33
2023-03-05T11:56:37.551Z,7.26
2023-03-05T11:57:37.570Z,7.16
2023-03-05T11:58:37.595Z,7.16
2023-03-05T11:59:37.620Z,7.16
2023-03-05T12:00:37.648Z,7.26
2023-03-05T12:01:37.666Z,7.26
2023-03-05T12:02:37.751Z,7.16
2023-03-05T12:03:37.741Z,7.23
2023-03-05T12:04:37.745Z,7.27
2023-03-05T12:05:37.765Z,7.34
2023-03-05T12:06:37.794Z,7.30
2023-03-05T12:07:37.818Z,7.13
2023-03-05T12:08:37.842Z,7.04
2023-03-05T12:09:37.872Z,7.00
2023-03-05T12:10:37.910Z,6.91
2023-03-05T12:11:37.917Z,6.79
2023-03-05T12:12:37.958Z,6.73
2023-03-05T12:13:38.840Z,6.67
2023-03-05T12:14:37.986Z,6.58
2023-03-05T12:15:38.038Z,6.43
2023-03-05T12:16:38.034Z,6.14
2023-03-05T12:17:38.069Z,6.10
2023-03-05T12:18:38.083Z,6.05
2023-03-05T12:19:38.109Z,5.88
2023-03-05T12:20:38.166Z,5.88
2023-03-05T12:21:38.158Z,5.85
2023-03-05T12:22:38.181Z,5.87
2023-03-05T12:23:38.204Z,5.98
2023-03-05T12:24:38.253Z,5.99
2023-03-05T12:25:38.251Z,6.06
2023-03-05T12:26:38.297Z,6.14
2023-03-05T12:27:38.299Z,6.21
2023-03-05T12:28:38.325Z,6.29
2023-03-05T12:29:38.347Z,6.34
2023-03-05T12:30:38.368Z,6.60
2023-03-05T12:31:38.439Z,6.64
2023-03-05T12:32:38.509Z,6.79
2023-03-05T12:33:38.444Z,6.94
2023-03-05T12:34:38.461Z,7.01
2023-03-05T12:35:38.498Z,7.00
2023-03-05T12:36:39.649Z,7.00
2023-03-05T12:37:38.536Z,7.13
2023-03-05T12:38:38.558Z,7.19
2023-03-05T12:39:38.586Z,7.12
2023-03-05T12:40:38.945Z,7.18
2023-03-05T12:41:39.220Z,7.22
2023-03-05T12:42:38.674Z,7.27
2023-03-05T12:43:38.680Z,7.27
2023-03-05T12:44:38.704Z,7.22
2023-03-05T12:45:38.728Z,7.22
2023-03-05T12:46:38.804Z,7.23
2023-03-05T12:47:40.377Z,7.18
2023-03-05T12:48:38.833Z,7.18
2023-03-05T12:49:38.829Z,7.11
2023-03-05T12:50:38.887Z,7.15
2023-03-05T12:51:38.875Z,7.05
2023-03-05T12:52:38.896Z,7.09
2023-03-05T12:53:38.919Z,6.98
2023-03-05T12:54:38.944Z,7.00
2023-03-05T12:55:38.968Z,7.04
2023-03-05T12:56:38.991Z,7.11
2023-03-05T12:57:39.019Z,7.11
2023-03-05T12:58:39.067Z,7.04
2023-03-05T12:59:39.074Z,7.09
2023-03-05T13:00:39.153Z,6.98
2023-03-05T13:01:39.120Z,7.01
2023-03-05T13:02:39.145Z,7.04
2023-03-05T13:03:39.224Z,7.09
2023-03-05T13:04:39.185Z,6.93
2023-03-05T13:05:39.210Z,7.03
2023-03-05T13:06:39.241Z,7.09
2023-03-05T13:07:39.254Z,7.12
2023-03-05T13:08:39.278Z,7.09
2023-03-05T13:09:39.308Z,7.16
2023-03-05T13:10:39.322Z,7.08
2023-03-05T13:11:39.511Z,7.26
2023-03-05T13:12:39.374Z,7.19
2023-03-05T13:13:39.398Z,7.22
2023-03-05T13:14:39.462Z,7.33
2023-03-05T13:15:39.444Z,7.44
2023-03-05T13:16:39.576Z,7.41
2023-03-05T13:17:39.506Z,7.41
2023-03-05T13:18:39.515Z,7.47